sensor_id;sensor_type;location;lat;lon;timestamp;P1;durP1;ratioP1;P2;durP2;ratioP2
19828;SDS011;10075;50.924;4.396;2022-10-31T00:00:07;19.33;;;11.30;;
19828;SDS011;10075;50.924;4.396;2022-10-31T00:02:35;15.60;;;9.65;;
19828;SDS011;10075;50.924;4.396;2022-10-31T00:05:02;18.45;;;10.70;;
19828;SDS011;10075;50.924;4.396;2022-10-31T00:07:29;17.60;;;9.90;;
19828;SDS011;10075;50.924;4.396;2022-10-31T00:09:56;19.75;;;9.85;;
19828;SDS011;10075;50.924;4.396;2022-10-31T00:12:25;18.95;;;9.10;;
19828;SDS011;10075;50.924;4.396;2022-10-31T00:14:54;15.63;;;9.13;;
19828;SDS011;10075;50.924;4.396;2022-10-31T00:17:21;15.45;;;9.43;;
19828;SDS011;10075;50.924;4.396;2022-10-31T00:19:48;17.98;;;9.07;;
19828;SDS011;10075;50.924;4.396;2022-10-31T00:22:15;18.02;;;9.82;;
19828;SDS011;10075;50.924;4.396;2022-10-31T00:24:42;14.82;;;9.30;;
19828;SDS011;10075;50.924;4.396;2022-10-31T00:27:08;16.88;;;9.52;;
19828;SDS011;10075;50.924;4.396;2022-10-31T00:29:36;19.20;;;10.13;;
19828;SDS011;10075;50.924;4.396;2022-10-31T00:32:04;16.63;;;10.35;;
19828;SDS011;10075;50.924;4.396;2022-10-31T00:34:31;13.80;;;9.88;;
19828;SDS011;10075;50.924;4.396;2022-10-31T00:36:58;17.40;;;10.02;;
19828;SDS011;10075;50.924;4.396;2022-10-31T00:39:25;19.42;;;9.85;;
19828;SDS011;10075;50.924;4.396;2022-10-31T00:41:52;17.10;;;9.68;;
19828;SDS011;10075;50.924;4.396;2022-10-31T00:44:18;20.92;;;10.55;;
19828;SDS011;10075;50.924;4.396;2022-10-31T00:46:45;20.23;;;10.50;;
19828;SDS011;10075;50.924;4.396;2022-10-31T00:49:14;23.40;;;11.25;;
19828;SDS011;10075;50.924;4.396;2022-10-31T00:51:41;17.63;;;10.80;;
19828;SDS011;10075;50.924;4.396;2022-10-31T00:54:08;18.77;;;10.68;;
19828;SDS011;10075;50.924;4.396;2022-10-31T00:56:35;22.92;;;11.32;;
19828;SDS011;10075;50.924;4.396;2022-10-31T00:59:02;17.67;;;10.38;;
19828;SDS011;10075;50.924;4.396;2022-10-31T01:01:29;18.88;;;11.30;;
19828;SDS011;10075;50.924;4.396;2022-10-31T01:03:56;22.58;;;10.48;;
19828;SDS011;10075;50.924;4.396;2022-10-31T01:06:24;19.38;;;10.70;;
19828;SDS011;10075;50.924;4.396;2022-10-31T01:08:51;15.57;;;10.95;;
19828;SDS011;10075;50.924;4.396;2022-10-31T01:11:19;18.08;;;10.93;;
19828;SDS011;10075;50.924;4.396;2022-10-31T01:13:49;19.67;;;10.80;;
19828;SDS011;10075;50.924;4.396;2022-10-31T01:16:18;21.33;;;11.27;;
19828;SDS011;10075;50.924;4.396;2022-10-31T01:18:47;22.33;;;11.50;;
19828;SDS011;10075;50.924;4.396;2022-10-31T01:21:15;19.08;;;11.10;;
19828;SDS011;10075;50.924;4.396;2022-10-31T01:23:44;21.02;;;11.68;;
19828;SDS011;10075;50.924;4.396;2022-10-31T01:26:12;20.20;;;10.98;;
19828;SDS011;10075;50.924;4.396;2022-10-31T01:28:43;20.25;;;12.65;;
19828;SDS011;10075;50.924;4.396;2022-10-31T01:31:11;18.45;;;11.80;;
19828;SDS011;10075;50.924;4.396;2022-10-31T01:33:38;20.52;;;11.98;;
19828;SDS011;10075;50.924;4.396;2022-10-31T01:36:12;24.00;;;12.48;;
19828;SDS011;10075;50.924;4.396;2022-10-31T01:38:42;21.63;;;11.77;;
19828;SDS011;10075;50.924;4.396;2022-10-31T01:41:11;21.30;;;11.57;;
19828;SDS011;10075;50.924;4.396;2022-10-31T01:43:46;20.17;;;12.02;;
19828;SDS011;10075;50.924;4.396;2022-10-31T01:46:15;21.60;;;11.82;;
19828;SDS011;10075;50.924;4.396;2022-10-31T01:48:45;17.23;;;11.60;;
19828;SDS011;10075;50.924;4.396;2022-10-31T01:51:14;20.13;;;11.90;;
19828;SDS011;10075;50.924;4.396;2022-10-31T01:53:42;19.88;;;11.55;;
19828;SDS011;10075;50.924;4.396;2022-10-31T01:56:13;15.45;;;11.05;;
19828;SDS011;10075;50.924;4.396;2022-10-31T01:58:41;23.20;;;12.15;;
19828;SDS011;10075;50.924;4.396;2022-10-31T02:01:08;23.10;;;12.50;;
19828;SDS011;10075;50.924;4.396;2022-10-31T02:03:35;23.10;;;11.80;;
19828;SDS011;10075;50.924;4.396;2022-10-31T02:06:03;18.65;;;11.57;;
19828;SDS011;10075;50.924;4.396;2022-10-31T02:08:33;21.30;;;11.65;;
19828;SDS011;10075;50.924;4.396;2022-10-31T02:11:01;20.55;;;12.43;;
19828;SDS011;10075;50.924;4.396;2022-10-31T02:13:29;27.50;;;12.57;;
19828;SDS011;10075;50.924;4.396;2022-10-31T02:15:57;19.55;;;11.48;;
19828;SDS011;10075;50.924;4.396;2022-10-31T02:18:25;20.38;;;11.30;;
19828;SDS011;10075;50.924;4.396;2022-10-31T02:20:57;20.10;;;11.98;;
19828;SDS011;10075;50.924;4.396;2022-10-31T02:23:36;21.58;;;11.32;;
19828;SDS011;10075;50.924;4.396;2022-10-31T02:32:29;16.63;;;9.88;;
19828;SDS011;10075;50.924;4.396;2022-10-31T02:35:07;17.52;;;10.45;;
19828;SDS011;10075;50.924;4.396;2022-10-31T02:37:41;15.77;;;10.43;;
19828;SDS011;10075;50.924;4.396;2022-10-31T02:40:17;14.95;;;10.38;;
19828;SDS011;10075;50.924;4.396;2022-10-31T02:42:50;15.55;;;9.70;;
19828;SDS011;10075;50.924;4.396;2022-10-31T02:45:25;15.82;;;9.75;;
19828;SDS011;10075;50.924;4.396;2022-10-31T02:47:58;17.30;;;10.27;;
19828;SDS011;10075;50.924;4.396;2022-10-31T02:50:30;18.00;;;10.30;;
19828;SDS011;10075;50.924;4.396;2022-10-31T02:53:00;16.33;;;10.40;;
19828;SDS011;10075;50.924;4.396;2022-10-31T02:55:42;16.05;;;9.80;;
19828;SDS011;10075;50.924;4.396;2022-10-31T02:58:15;15.68;;;9.63;;
19828;SDS011;10075;50.924;4.396;2022-10-31T03:00:49;22.05;;;9.73;;
19828;SDS011;10075;50.924;4.396;2022-10-31T03:03:39;17.55;;;9.38;;
19828;SDS011;10075;50.924;4.396;2022-10-31T03:06:20;18.90;;;10.18;;
19828;SDS011;10075;50.924;4.396;2022-10-31T03:08:54;15.65;;;9.75;;
19828;SDS011;10075;50.924;4.396;2022-10-31T03:11:28;12.57;;;9.30;;
19828;SDS011;10075;50.924;4.396;2022-10-31T03:14:00;15.15;;;9.43;;
19828;SDS011;10075;50.924;4.396;2022-10-31T03:16:34;17.75;;;9.07;;
19828;SDS011;10075;50.924;4.396;2022-10-31T03:19:09;17.60;;;10.25;;
19828;SDS011;10075;50.924;4.396;2022-10-31T03:21:39;13.07;;;8.80;;
19828;SDS011;10075;50.924;4.396;2022-10-31T03:24:10;15.10;;;8.65;;
19828;SDS011;10075;50.924;4.396;2022-10-31T03:26:39;13.80;;;8.80;;
19828;SDS011;10075;50.924;4.396;2022-10-31T03:29:12;21.67;;;11.18;;
19828;SDS011;10075;50.924;4.396;2022-10-31T03:31:43;15.18;;;9.45;;
19828;SDS011;10075;50.924;4.396;2022-10-31T03:34:17;15.30;;;9.20;;
19828;SDS011;10075;50.924;4.396;2022-10-31T03:36:46;15.77;;;9.95;;
19828;SDS011;10075;50.924;4.396;2022-10-31T03:39:17;13.70;;;9.38;;
19828;SDS011;10075;50.924;4.396;2022-10-31T03:41:48;12.90;;;9.18;;
19828;SDS011;10075;50.924;4.396;2022-10-31T03:44:19;15.00;;;9.23;;
19828;SDS011;10075;50.924;4.396;2022-10-31T03:46:48;17.75;;;10.13;;
19828;SDS011;10075;50.924;4.396;2022-10-31T03:49:17;11.45;;;8.90;;
19828;SDS011;10075;50.924;4.396;2022-10-31T03:51:45;14.20;;;9.30;;
19828;SDS011;10075;50.924;4.396;2022-10-31T03:54:17;16.05;;;8.98;;
19828;SDS011;10075;50.924;4.396;2022-10-31T03:56:50;12.05;;;8.05;;
19828;SDS011;10075;50.924;4.396;2022-10-31T03:59:21;11.82;;;8.15;;
19828;SDS011;10075;50.924;4.396;2022-10-31T04:01:53;17.05;;;10.02;;
19828;SDS011;10075;50.924;4.396;2022-10-31T04:04:26;17.17;;;10.13;;
19828;SDS011;10075;50.924;4.396;2022-10-31T04:06:55;15.45;;;9.48;;
19828;SDS011;10075;50.924;4.396;2022-10-31T04:09:24;15.20;;;9.13;;
19828;SDS011;10075;50.924;4.396;2022-10-31T04:11:54;11.25;;;7.82;;
19828;SDS011;10075;50.924;4.396;2022-10-31T04:14:23;15.73;;;9.90;;
19828;SDS011;10075;50.924;4.396;2022-10-31T04:16:54;10.88;;;8.02;;
19828;SDS011;10075;50.924;4.396;2022-10-31T04:19:21;14.65;;;9.55;;
19828;SDS011;10075;50.924;4.396;2022-10-31T04:21:49;16.10;;;9.43;;
19828;SDS011;10075;50.924;4.396;2022-10-31T04:24:16;14.35;;;9.18;;
19828;SDS011;10075;50.924;4.396;2022-10-31T04:26:43;15.63;;;9.88;;
19828;SDS011;10075;50.924;4.396;2022-10-31T04:29:10;13.43;;;8.45;;
19828;SDS011;10075;50.924;4.396;2022-10-31T04:31:36;13.85;;;8.50;;
19828;SDS011;10075;50.924;4.396;2022-10-31T04:34:03;13.63;;;7.38;;
19828;SDS011;10075;50.924;4.396;2022-10-31T04:36:30;13.27;;;7.53;;
19828;SDS011;10075;50.924;4.396;2022-10-31T04:38:59;11.27;;;7.73;;
19828;SDS011;10075;50.924;4.396;2022-10-31T04:41:25;10.70;;;7.60;;
19828;SDS011;10075;50.924;4.396;2022-10-31T04:43:52;15.98;;;9.38;;
19828;SDS011;10075;50.924;4.396;2022-10-31T04:46:19;19.23;;;9.93;;
19828;SDS011;10075;50.924;4.396;2022-10-31T04:48:46;14.40;;;8.55;;
19828;SDS011;10075;50.924;4.396;2022-10-31T04:51:14;17.02;;;9.60;;
19828;SDS011;10075;50.924;4.396;2022-10-31T04:53:41;17.35;;;9.65;;
19828;SDS011;10075;50.924;4.396;2022-10-31T04:56:09;16.27;;;9.98;;
19828;SDS011;10075;50.924;4.396;2022-10-31T04:58:36;13.45;;;9.30;;
19828;SDS011;10075;50.924;4.396;2022-10-31T05:01:03;17.08;;;9.40;;
19828;SDS011;10075;50.924;4.396;2022-10-31T05:03:30;16.73;;;10.15;;
19828;SDS011;10075;50.924;4.396;2022-10-31T05:05:57;20.27;;;10.23;;
19828;SDS011;10075;50.924;4.396;2022-10-31T05:08:24;18.35;;;10.00;;
19828;SDS011;10075;50.924;4.396;2022-10-31T05:10:51;15.35;;;10.18;;
19828;SDS011;10075;50.924;4.396;2022-10-31T05:13:19;19.52;;;10.95;;
19828;SDS011;10075;50.924;4.396;2022-10-31T05:15:46;20.25;;;10.68;;
19828;SDS011;10075;50.924;4.396;2022-10-31T05:18:13;17.02;;;10.38;;
19828;SDS011;10075;50.924;4.396;2022-10-31T05:20:40;21.30;;;10.73;;
19828;SDS011;10075;50.924;4.396;2022-10-31T05:23:07;16.73;;;10.30;;
19828;SDS011;10075;50.924;4.396;2022-10-31T05:25:34;17.50;;;11.40;;
19828;SDS011;10075;50.924;4.396;2022-10-31T05:28:01;18.08;;;11.45;;
19828;SDS011;10075;50.924;4.396;2022-10-31T05:30:30;21.30;;;11.13;;
19828;SDS011;10075;50.924;4.396;2022-10-31T05:32:58;18.25;;;11.20;;
19828;SDS011;10075;50.924;4.396;2022-10-31T05:35:26;20.40;;;12.13;;
19828;SDS011;10075;50.924;4.396;2022-10-31T05:37:54;21.70;;;12.55;;
19828;SDS011;10075;50.924;4.396;2022-10-31T05:40:22;22.20;;;12.35;;
19828;SDS011;10075;50.924;4.396;2022-10-31T05:42:51;19.00;;;12.13;;
19828;SDS011;10075;50.924;4.396;2022-10-31T05:45:20;20.77;;;11.88;;
19828;SDS011;10075;50.924;4.396;2022-10-31T05:47:52;17.42;;;11.35;;
19828;SDS011;10075;50.924;4.396;2022-10-31T05:50:20;20.35;;;11.95;;
19828;SDS011;10075;50.924;4.396;2022-10-31T05:52:47;21.00;;;12.85;;
19828;SDS011;10075;50.924;4.396;2022-10-31T05:55:20;25.00;;;14.15;;
19828;SDS011;10075;50.924;4.396;2022-10-31T05:57:47;22.73;;;12.77;;
19828;SDS011;10075;50.924;4.396;2022-10-31T06:00:14;17.83;;;12.15;;
19828;SDS011;10075;50.924;4.396;2022-10-31T06:02:41;18.77;;;12.32;;
19828;SDS011;10075;50.924;4.396;2022-10-31T06:05:10;18.05;;;10.88;;
19828;SDS011;10075;50.924;4.396;2022-10-31T06:07:37;18.17;;;11.52;;
19828;SDS011;10075;50.924;4.396;2022-10-31T06:10:04;18.00;;;11.23;;
19828;SDS011;10075;50.924;4.396;2022-10-31T06:12:33;17.70;;;10.95;;
19828;SDS011;10075;50.924;4.396;2022-10-31T06:15:02;22.75;;;12.60;;
19828;SDS011;10075;50.924;4.396;2022-10-31T06:17:30;18.88;;;12.02;;
19828;SDS011;10075;50.924;4.396;2022-10-31T06:19:57;25.50;;;13.75;;
19828;SDS011;10075;50.924;4.396;2022-10-31T06:22:26;24.20;;;14.02;;
19828;SDS011;10075;50.924;4.396;2022-10-31T06:24:53;20.23;;;13.60;;
19828;SDS011;10075;50.924;4.396;2022-10-31T06:27:20;33.33;;;14.63;;
19828;SDS011;10075;50.924;4.396;2022-10-31T06:29:47;26.80;;;15.25;;
19828;SDS011;10075;50.924;4.396;2022-10-31T06:32:14;28.70;;;16.30;;
19828;SDS011;10075;50.924;4.396;2022-10-31T06:34:41;32.38;;;16.48;;
19828;SDS011;10075;50.924;4.396;2022-10-31T06:37:09;24.88;;;14.90;;
19828;SDS011;10075;50.924;4.396;2022-10-31T06:39:39;29.85;;;15.35;;
19828;SDS011;10075;50.924;4.396;2022-10-31T06:42:06;21.38;;;14.45;;
19828;SDS011;10075;50.924;4.396;2022-10-31T06:44:32;24.25;;;14.63;;
19828;SDS011;10075;50.924;4.396;2022-10-31T06:46:59;24.13;;;13.80;;
19828;SDS011;10075;50.924;4.396;2022-10-31T06:49:26;20.67;;;13.23;;
19828;SDS011;10075;50.924;4.396;2022-10-31T06:51:53;20.73;;;13.35;;
19828;SDS011;10075;50.924;4.396;2022-10-31T06:54:20;23.17;;;14.20;;
19828;SDS011;10075;50.924;4.396;2022-10-31T06:56:49;26.88;;;16.30;;
19828;SDS011;10075;50.924;4.396;2022-10-31T06:59:16;24.48;;;15.00;;
19828;SDS011;10075;50.924;4.396;2022-10-31T07:01:43;21.98;;;14.20;;
19828;SDS011;10075;50.924;4.396;2022-10-31T07:04:10;21.63;;;12.98;;
19828;SDS011;10075;50.924;4.396;2022-10-31T07:06:37;23.50;;;15.20;;
19828;SDS011;10075;50.924;4.396;2022-10-31T07:09:04;26.33;;;15.02;;
19828;SDS011;10075;50.924;4.396;2022-10-31T07:11:31;28.55;;;14.73;;
19828;SDS011;10075;50.924;4.396;2022-10-31T07:14:00;22.73;;;14.50;;
19828;SDS011;10075;50.924;4.396;2022-10-31T07:16:27;24.33;;;14.18;;
19828;SDS011;10075;50.924;4.396;2022-10-31T07:18:54;23.13;;;12.98;;
19828;SDS011;10075;50.924;4.396;2022-10-31T07:21:20;19.60;;;13.70;;
19828;SDS011;10075;50.924;4.396;2022-10-31T07:23:48;21.40;;;13.25;;
19828;SDS011;10075;50.924;4.396;2022-10-31T07:26:15;20.63;;;13.25;;
19828;SDS011;10075;50.924;4.396;2022-10-31T07:28:42;21.60;;;13.02;;
19828;SDS011;10075;50.924;4.396;2022-10-31T07:31:10;22.58;;;12.55;;
19828;SDS011;10075;50.924;4.396;2022-10-31T07:33:37;19.83;;;12.18;;
19828;SDS011;10075;50.924;4.396;2022-10-31T07:36:04;19.65;;;12.27;;
19828;SDS011;10075;50.924;4.396;2022-10-31T07:38:31;22.80;;;12.90;;
19828;SDS011;10075;50.924;4.396;2022-10-31T07:40:58;30.85;;;14.98;;
19828;SDS011;10075;50.924;4.396;2022-10-31T07:43:25;28.23;;;15.25;;
19828;SDS011;10075;50.924;4.396;2022-10-31T07:45:52;23.63;;;14.65;;
19828;SDS011;10075;50.924;4.396;2022-10-31T07:48:21;38.15;;;17.52;;
19828;SDS011;10075;50.924;4.396;2022-10-31T07:50:48;25.50;;;14.85;;
19828;SDS011;10075;50.924;4.396;2022-10-31T07:53:15;44.85;;;18.33;;
19828;SDS011;10075;50.924;4.396;2022-10-31T07:55:42;37.22;;;16.02;;
19828;SDS011;10075;50.924;4.396;2022-10-31T07:58:10;29.70;;;15.82;;
19828;SDS011;10075;50.924;4.396;2022-10-31T08:00:38;27.08;;;15.55;;
19828;SDS011;10075;50.924;4.396;2022-10-31T08:03:07;21.33;;;14.18;;
19828;SDS011;10075;50.924;4.396;2022-10-31T08:05:36;19.92;;;13.90;;
19828;SDS011;10075;50.924;4.396;2022-10-31T08:08:04;24.85;;;14.38;;
19828;SDS011;10075;50.924;4.396;2022-10-31T08:10:32;28.98;;;14.70;;
19828;SDS011;10075;50.924;4.396;2022-10-31T08:13:01;25.38;;;13.85;;
19828;SDS011;10075;50.924;4.396;2022-10-31T08:15:29;24.58;;;14.85;;
19828;SDS011;10075;50.924;4.396;2022-10-31T08:17:56;24.55;;;14.88;;
19828;SDS011;10075;50.924;4.396;2022-10-31T08:20:24;23.10;;;14.77;;
19828;SDS011;10075;50.924;4.396;2022-10-31T08:22:55;24.90;;;14.02;;
19828;SDS011;10075;50.924;4.396;2022-10-31T08:25:24;26.48;;;15.25;;
19828;SDS011;10075;50.924;4.396;2022-10-31T08:27:52;28.35;;;15.52;;
19828;SDS011;10075;50.924;4.396;2022-10-31T08:30:20;23.63;;;14.13;;
19828;SDS011;10075;50.924;4.396;2022-10-31T08:32:47;26.60;;;14.88;;
19828;SDS011;10075;50.924;4.396;2022-10-31T08:35:24;26.42;;;15.85;;
19828;SDS011;10075;50.924;4.396;2022-10-31T08:37:51;22.55;;;13.88;;
19828;SDS011;10075;50.924;4.396;2022-10-31T08:40:20;26.20;;;14.27;;
19828;SDS011;10075;50.924;4.396;2022-10-31T08:42:54;23.85;;;13.95;;
19828;SDS011;10075;50.924;4.396;2022-10-31T08:45:22;23.23;;;14.05;;
19828;SDS011;10075;50.924;4.396;2022-10-31T08:47:49;22.02;;;13.57;;
19828;SDS011;10075;50.924;4.396;2022-10-31T08:50:16;25.17;;;13.50;;
19828;SDS011;10075;50.924;4.396;2022-10-31T08:52:43;30.45;;;14.57;;
19828;SDS011;10075;50.924;4.396;2022-10-31T08:55:10;24.10;;;14.32;;
19828;SDS011;10075;50.924;4.396;2022-10-31T08:57:39;23.00;;;14.98;;
19828;SDS011;10075;50.924;4.396;2022-10-31T09:00:06;18.58;;;12.68;;
19828;SDS011;10075;50.924;4.396;2022-10-31T09:02:34;19.75;;;13.20;;
19828;SDS011;10075;50.924;4.396;2022-10-31T09:05:02;18.30;;;12.82;;
19828;SDS011;10075;50.924;4.396;2022-10-31T09:07:29;19.38;;;11.48;;
19828;SDS011;10075;50.924;4.396;2022-10-31T09:09:56;18.73;;;13.15;;
19828;SDS011;10075;50.924;4.396;2022-10-31T09:12:23;16.83;;;12.63;;
19828;SDS011;10075;50.924;4.396;2022-10-31T09:14:52;21.17;;;13.18;;
19828;SDS011;10075;50.924;4.396;2022-10-31T09:17:19;23.90;;;13.02;;
19828;SDS011;10075;50.924;4.396;2022-10-31T09:19:45;17.63;;;12.05;;
19828;SDS011;10075;50.924;4.396;2022-10-31T09:22:12;21.30;;;13.38;;
19828;SDS011;10075;50.924;4.396;2022-10-31T09:24:40;18.25;;;12.35;;
19828;SDS011;10075;50.924;4.396;2022-10-31T09:27:07;21.17;;;12.50;;
19828;SDS011;10075;50.924;4.396;2022-10-31T09:29:34;21.42;;;13.30;;
19828;SDS011;10075;50.924;4.396;2022-10-31T09:32:02;21.55;;;12.75;;
19828;SDS011;10075;50.924;4.396;2022-10-31T09:34:29;19.65;;;13.05;;
19828;SDS011;10075;50.924;4.396;2022-10-31T09:36:56;16.80;;;12.98;;
19828;SDS011;10075;50.924;4.396;2022-10-31T09:39:23;17.90;;;12.63;;
19828;SDS011;10075;50.924;4.396;2022-10-31T09:41:55;18.95;;;13.10;;
19828;SDS011;10075;50.924;4.396;2022-10-31T09:44:43;20.15;;;12.68;;
19828;SDS011;10075;50.924;4.396;2022-10-31T09:47:19;21.27;;;13.25;;
19828;SDS011;10075;50.924;4.396;2022-10-31T09:49:59;20.55;;;13.43;;
19828;SDS011;10075;50.924;4.396;2022-10-31T09:52:38;21.17;;;12.52;;
19828;SDS011;10075;50.924;4.396;2022-10-31T09:55:08;22.23;;;12.50;;
19828;SDS011;10075;50.924;4.396;2022-10-31T09:57:41;19.70;;;11.55;;
19828;SDS011;10075;50.924;4.396;2022-10-31T10:00:11;18.65;;;11.88;;
19828;SDS011;10075;50.924;4.396;2022-10-31T10:02:44;19.73;;;12.07;;
19828;SDS011;10075;50.924;4.396;2022-10-31T10:05:16;20.15;;;11.75;;
19828;SDS011;10075;50.924;4.396;2022-10-31T10:07:49;14.57;;;10.68;;
19828;SDS011;10075;50.924;4.396;2022-10-31T10:10:22;16.80;;;10.68;;
19828;SDS011;10075;50.924;4.396;2022-10-31T10:13:02;20.50;;;11.95;;
19828;SDS011;10075;50.924;4.396;2022-10-31T10:18:32;15.32;;;11.30;;
19828;SDS011;10075;50.924;4.396;2022-10-31T10:21:11;18.60;;;11.07;;
19828;SDS011;10075;50.924;4.396;2022-10-31T10:23:52;19.33;;;11.77;;
19828;SDS011;10075;50.924;4.396;2022-10-31T10:26:29;18.35;;;11.68;;
19828;SDS011;10075;50.924;4.396;2022-10-31T10:29:10;23.17;;;14.20;;
19828;SDS011;10075;50.924;4.396;2022-10-31T10:31:47;22.40;;;14.35;;
19828;SDS011;10075;50.924;4.396;2022-10-31T10:34:18;20.33;;;13.65;;
19828;SDS011;10075;50.924;4.396;2022-10-31T10:36:50;17.95;;;12.70;;
19828;SDS011;10075;50.924;4.396;2022-10-31T10:39:22;15.95;;;11.70;;
19828;SDS011;10075;50.924;4.396;2022-10-31T10:41:51;18.77;;;12.50;;
19828;SDS011;10075;50.924;4.396;2022-10-31T10:44:35;19.92;;;12.38;;
19828;SDS011;10075;50.924;4.396;2022-10-31T10:47:22;17.02;;;13.27;;
19828;SDS011;10075;50.924;4.396;2022-10-31T10:50:08;21.33;;;12.07;;
19828;SDS011;10075;50.924;4.396;2022-10-31T10:52:41;18.38;;;12.50;;
19828;SDS011;10075;50.924;4.396;2022-10-31T10:55:16;19.75;;;12.30;;
19828;SDS011;10075;50.924;4.396;2022-10-31T10:57:56;19.67;;;12.52;;
19828;SDS011;10075;50.924;4.396;2022-10-31T11:00:26;19.23;;;11.25;;
19828;SDS011;10075;50.924;4.396;2022-10-31T11:02:55;18.13;;;12.75;;
19828;SDS011;10075;50.924;4.396;2022-10-31T11:05:28;22.55;;;12.70;;
19828;SDS011;10075;50.924;4.396;2022-10-31T11:08:01;19.65;;;12.38;;
19828;SDS011;10075;50.924;4.396;2022-10-31T11:10:28;17.80;;;12.15;;
19828;SDS011;10075;50.924;4.396;2022-10-31T11:12:59;20.70;;;12.95;;
19828;SDS011;10075;50.924;4.396;2022-10-31T11:15:30;14.60;;;11.70;;
19828;SDS011;10075;50.924;4.396;2022-10-31T11:18:01;18.05;;;12.80;;
19828;SDS011;10075;50.924;4.396;2022-10-31T11:20:31;19.27;;;13.02;;
19828;SDS011;10075;50.924;4.396;2022-10-31T11:23:01;19.40;;;12.73;;
19828;SDS011;10075;50.924;4.396;2022-10-31T11:25:47;21.75;;;13.10;;
19828;SDS011;10075;50.924;4.396;2022-10-31T11:28:16;20.83;;;12.40;;
19828;SDS011;10075;50.924;4.396;2022-10-31T11:30:44;22.88;;;14.15;;
19828;SDS011;10075;50.924;4.396;2022-10-31T11:33:17;20.50;;;13.30;;
19828;SDS011;10075;50.924;4.396;2022-10-31T11:35:49;20.77;;;13.18;;
19828;SDS011;10075;50.924;4.396;2022-10-31T11:38:19;21.65;;;13.30;;
19828;SDS011;10075;50.924;4.396;2022-10-31T11:40:54;22.05;;;13.82;;
19828;SDS011;10075;50.924;4.396;2022-10-31T11:43:24;23.25;;;15.13;;
19828;SDS011;10075;50.924;4.396;2022-10-31T11:45:52;20.90;;;13.15;;
19828;SDS011;10075;50.924;4.396;2022-10-31T11:48:21;23.60;;;14.15;;
19828;SDS011;10075;50.924;4.396;2022-10-31T11:50:52;19.08;;;12.82;;
19828;SDS011;10075;50.924;4.396;2022-10-31T11:53:24;22.10;;;13.77;;
19828;SDS011;10075;50.924;4.396;2022-10-31T11:56:01;20.30;;;14.20;;
19828;SDS011;10075;50.924;4.396;2022-10-31T11:58:31;22.55;;;13.35;;
19828;SDS011;10075;50.924;4.396;2022-10-31T12:00:58;21.48;;;13.70;;
19828;SDS011;10075;50.924;4.396;2022-10-31T12:03:37;18.20;;;12.85;;
19828;SDS011;10075;50.924;4.396;2022-10-31T12:06:22;21.50;;;13.25;;
19828;SDS011;10075;50.924;4.396;2022-10-31T12:08:54;21.73;;;13.45;;
19828;SDS011;10075;50.924;4.396;2022-10-31T12:11:34;20.52;;;12.73;;
19828;SDS011;10075;50.924;4.396;2022-10-31T12:14:14;22.00;;;12.52;;
19828;SDS011;10075;50.924;4.396;2022-10-31T12:16:55;24.50;;;12.68;;
19828;SDS011;10075;50.924;4.396;2022-10-31T12:19:30;20.10;;;12.07;;
19828;SDS011;10075;50.924;4.396;2022-10-31T12:22:08;21.13;;;12.38;;
19828;SDS011;10075;50.924;4.396;2022-10-31T12:24:47;22.40;;;12.63;;
19828;SDS011;10075;50.924;4.396;2022-10-31T12:27:43;18.63;;;10.90;;
19828;SDS011;10075;50.924;4.396;2022-10-31T12:30:31;19.95;;;11.45;;
19828;SDS011;10075;50.924;4.396;2022-10-31T12:33:14;20.85;;;12.23;;
19828;SDS011;10075;50.924;4.396;2022-10-31T12:35:51;19.60;;;10.20;;
19828;SDS011;10075;50.924;4.396;2022-10-31T12:38:33;18.90;;;10.05;;
19828;SDS011;10075;50.924;4.396;2022-10-31T12:41:19;21.05;;;10.73;;
19828;SDS011;10075;50.924;4.396;2022-10-31T12:43:56;15.75;;;9.15;;
19828;SDS011;10075;50.924;4.396;2022-10-31T12:46:33;20.73;;;10.43;;
19828;SDS011;10075;50.924;4.396;2022-10-31T12:52:19;16.17;;;8.63;;
19828;SDS011;10075;50.924;4.396;2022-10-31T12:55:03;19.63;;;9.00;;
19828;SDS011;10075;50.924;4.396;2022-10-31T12:57:38;15.82;;;8.68;;
19828;SDS011;10075;50.924;4.396;2022-10-31T13:00:11;19.98;;;8.45;;
19828;SDS011;10075;50.924;4.396;2022-10-31T13:02:42;14.55;;;7.78;;
19828;SDS011;10075;50.924;4.396;2022-10-31T13:05:17;16.33;;;8.48;;
19828;SDS011;10075;50.924;4.396;2022-10-31T13:07:47;19.60;;;8.80;;
19828;SDS011;10075;50.924;4.396;2022-10-31T13:10:22;17.10;;;8.80;;
19828;SDS011;10075;50.924;4.396;2022-10-31T13:12:58;20.63;;;9.80;;
19828;SDS011;10075;50.924;4.396;2022-10-31T13:15:32;19.20;;;9.43;;
19828;SDS011;10075;50.924;4.396;2022-10-31T13:18:10;13.85;;;8.40;;
19828;SDS011;10075;50.924;4.396;2022-10-31T13:20:41;11.82;;;8.70;;
19828;SDS011;10075;50.924;4.396;2022-10-31T13:23:14;17.75;;;8.35;;
19828;SDS011;10075;50.924;4.396;2022-10-31T13:25:55;19.38;;;8.20;;
19828;SDS011;10075;50.924;4.396;2022-10-31T13:28:26;15.88;;;8.07;;
19828;SDS011;10075;50.924;4.396;2022-10-31T13:31:00;17.58;;;7.72;;
19828;SDS011;10075;50.924;4.396;2022-10-31T13:33:28;17.77;;;8.10;;
19828;SDS011;10075;50.924;4.396;2022-10-31T13:36:03;20.70;;;7.30;;
19828;SDS011;10075;50.924;4.396;2022-10-31T13:38:49;18.25;;;7.93;;
19828;SDS011;10075;50.924;4.396;2022-10-31T13:41:25;15.52;;;7.68;;
19828;SDS011;10075;50.924;4.396;2022-10-31T13:44:02;19.13;;;8.40;;
19828;SDS011;10075;50.924;4.396;2022-10-31T13:46:35;24.58;;;8.13;;
19828;SDS011;10075;50.924;4.396;2022-10-31T13:49:04;16.00;;;8.55;;
19828;SDS011;10075;50.924;4.396;2022-10-31T13:51:47;16.60;;;8.45;;
19828;SDS011;10075;50.924;4.396;2022-10-31T13:54:21;19.80;;;7.95;;
19828;SDS011;10075;50.924;4.396;2022-10-31T13:56:50;18.85;;;8.27;;
19828;SDS011;10075;50.924;4.396;2022-10-31T13:59:19;13.50;;;7.43;;
19828;SDS011;10075;50.924;4.396;2022-10-31T14:01:49;12.10;;;7.60;;
19828;SDS011;10075;50.924;4.396;2022-10-31T14:04:19;18.58;;;7.55;;
19828;SDS011;10075;50.924;4.396;2022-10-31T14:06:53;18.02;;;7.65;;
19828;SDS011;10075;50.924;4.396;2022-10-31T14:09:31;17.52;;;8.25;;
19828;SDS011;10075;50.924;4.396;2022-10-31T14:12:03;18.02;;;7.00;;
19828;SDS011;10075;50.924;4.396;2022-10-31T14:14:34;22.55;;;7.22;;
19828;SDS011;10075;50.924;4.396;2022-10-31T14:17:14;17.95;;;7.07;;
19828;SDS011;10075;50.924;4.396;2022-10-31T14:19:55;14.60;;;6.65;;
19828;SDS011;10075;50.924;4.396;2022-10-31T14:22:31;13.75;;;6.93;;
19828;SDS011;10075;50.924;4.396;2022-10-31T14:24:58;13.55;;;5.97;;
19828;SDS011;10075;50.924;4.396;2022-10-31T14:30:19;16.45;;;5.35;;
19828;SDS011;10075;50.924;4.396;2022-10-31T14:32:49;14.48;;;5.90;;
19828;SDS011;10075;50.924;4.396;2022-10-31T14:35:18;11.00;;;5.43;;
19828;SDS011;10075;50.924;4.396;2022-10-31T14:38:01;12.23;;;5.15;;
19828;SDS011;10075;50.924;4.396;2022-10-31T14:40:49;13.25;;;5.20;;
19828;SDS011;10075;50.924;4.396;2022-10-31T14:43:43;15.25;;;4.40;;
19828;SDS011;10075;50.924;4.396;2022-10-31T14:46:28;15.15;;;5.00;;
19828;SDS011;10075;50.924;4.396;2022-10-31T14:49:12;13.10;;;5.70;;
19828;SDS011;10075;50.924;4.396;2022-10-31T14:51:48;16.23;;;6.50;;
19828;SDS011;10075;50.924;4.396;2022-10-31T14:54:18;17.85;;;5.28;;
19828;SDS011;10075;50.924;4.396;2022-10-31T14:56:52;20.08;;;5.88;;
19828;SDS011;10075;50.924;4.396;2022-10-31T14:59:23;11.57;;;5.60;;
19828;SDS011;10075;50.924;4.396;2022-10-31T15:01:55;13.55;;;6.00;;